Time;durP1;ratioP1;P1;durP2;ratioP2;P2;SDS_P1;SDS_P2;PMS_P1;PMS_P2;Temp;Humidity;BMP_temperature;BMP_pressure;BME280_temperature;BME280_humidity;BME280_pressure;Samples;Min_cycle;Max_cycle;Signal;HPM_P1;HPM_P2
2022/10/17 00:00:24;;;;;;;4.57;4.22;;;;;;;12.88;100.00;99033.94;4093325;29;20203;-65
2022/10/17 00:02:26;;;;;;;4.82;4.45;;;;;;;12.73;100.00;99025.47;4093481;29;20203;-65
2022/10/17 00:04:27;;;;;;;4.53;4.13;;;;;;;12.82;100.00;99023.97;4103284;28;20218;-65
2022/10/17 00:06:29;;;;;;;4.38;4.05;;;;;;;12.83;100.00;99031.13;4091827;28;20231;-65
2022/10/17 00:08:30;;;;;;;12.45;4.80;;;;;;;12.89;100.00;99019.13;4093892;28;20926;-65
2022/10/17 00:10:32;;;;;;;12.77;4.00;;;;;;;12.90;100.00;99025.47;4091089;28;20670;-65
2022/10/17 00:12:33;;;;;;;4.00;3.70;;;;;;;12.81;100.00;99021.47;4092127;28;20203;-65
2022/10/17 00:14:35;;;;;;;6.22;3.38;;;;;;;12.88;100.00;99022.97;4087308;28;20687;-65
2022/10/17 00:16:37;;;;;;;3.90;3.60;;;;;;;12.78;100.00;99021.97;4090789;28;20242;-64
2022/10/17 00:18:38;;;;;;;5.55;3.67;;;;;;;12.79;100.00;99019.00;4089088;28;21226;-65
2022/10/17 00:20:40;;;;;;;11.13;4.00;;;;;;;12.81;100.00;99027.78;4089803;28;20207;-65
2022/10/17 00:22:42;;;;;;;7.20;5.07;;;;;;;12.82;100.00;99023.97;4091786;28;20211;-65
2022/10/17 00:24:43;;;;;;;4.82;3.78;;;;;;;12.87;100.00;99031.44;4092522;29;20667;-65
2022/10/17 00:26:45;;;;;;;9.85;3.78;;;;;;;12.81;100.00;99033.28;4092422;28;20207;-65
2022/10/17 00:28:48;;;;;;;4.82;3.47;;;;;;;12.81;100.00;99038.78;4091570;28;20219;-65
2022/10/17 00:31:01;;;;;;;4.35;3.75;;;;;;;12.89;100.00;99032.84;4105883;28;20215;-65
2022/10/17 00:33:02;;;;;;;4.03;3.72;;;;;;;12.90;100.00;99034.50;4091527;28;20211;-65
2022/10/17 00:35:04;;;;;;;4.10;3.63;;;;;;;12.84;100.00;99035.53;4102006;28;20281;-65
2022/10/17 00:37:06;;;;;;;3.33;3.13;;;;;;;12.78;100.00;99033.78;4089123;28;20208;-65
2022/10/17 00:39:08;;;;;;;5.25;3.45;;;;;;;12.76;100.00;99035.94;4090236;28;20208;-64
2022/10/17 00:41:12;;;;;;;3.70;3.20;;;;;;;12.74;100.00;99040.88;4090778;28;20211;-65
2022/10/17 00:43:17;;;;;;;7.95;3.50;;;;;;;12.84;100.00;99038.25;4089329;28;20222;-65
2022/10/17 00:45:29;;;;;;;5.38;3.25;;;;;;;12.82;100.00;99034.94;4087523;28;20230;-65
2022/10/17 00:47:31;;;;;;;7.10;3.40;;;;;;;12.82;100.00;99029.47;4091760;28;20215;-65
2022/10/17 00:49:35;;;;;;;4.28;3.85;;;;;;;12.75;100.00;99031.53;4091799;28;20215;-65
2022/10/17 00:51:42;;;;;;;5.70;3.80;;;;;;;12.75;100.00;99023.31;4102948;28;20211;-65
2022/10/17 00:53:44;;;;;;;4.05;3.67;;;;;;;12.75;100.00;99025.22;4103538;28;20245;-65
2022/10/17 00:55:51;;;;;;;4.03;3.67;;;;;;;12.66;100.00;99024.81;4089626;28;20863;-65
2022/10/17 00:57:52;;;;;;;13.82;2.75;;;;;;;12.74;100.00;99032.63;4092961;29;20211;-65
2022/10/17 00:59:56;;;;;;;5.07;3.67;;;;;;;12.67;100.00;99031.97;4087532;28;20203;-65
2022/10/17 01:02:07;;;;;;;8.63;3.13;;;;;;;12.62;100.00;99029.16;4103418;28;20210;-65
2022/10/17 01:04:09;;;;;;;3.72;3.13;;;;;;;12.62;100.00;99028.28;4105854;28;20206;-65
2022/10/17 01:06:10;;;;;;;3.50;2.92;;;;;;;12.67;100.00;99031.97;4090761;28;20235;-65
2022/10/17 01:08:12;;;;;;;8.05;3.53;;;;;;;12.52;100.00;99029.00;4093394;29;20238;-65
2022/10/17 01:10:14;;;;;;;8.05;3.75;;;;;;;12.53;100.00;99036.16;4092217;29;20667;-65
2022/10/17 01:12:31;;;;;;;6.05;3.55;;;;;;;12.54;100.00;99024.06;4091506;29;20307;-65
2022/10/17 01:14:42;;;;;;;3.50;3.28;;;;;;;12.54;100.00;99025.97;4105730;28;20211;-65
2022/10/17 01:16:51;;;;;;;5.40;3.58;;;;;;;12.47;100.00;99026.16;4090686;28;20231;-64
2022/10/17 01:19:19;;;;;;;3.65;3.35;;;;;;;12.45;100.00;99028.31;4089757;28;20243;-65
2022/10/17 01:21:44;;;;;;;6.38;3.28;;;;;;;12.53;100.00;99030.66;4092875;28;20218;-65
2022/10/17 01:24:17;;;;;;;5.20;2.97;;;;;;;12.57;100.00;99026.31;4092506;28;20254;-65
2022/10/17 01:26:56;;;;;;;5.00;3.70;;;;;;;12.44;100.00;99032.13;4105543;28;20281;-65
2022/10/17 01:29:11;;;;;;;8.05;3.17;;;;;;;12.38;100.00;99035.06;4091299;29;20294;-64
2022/10/17 01:31:13;;;;;;;3.15;2.92;;;;;;;12.36;100.00;99040.78;4091423;28;20258;-65
2022/10/17 01:33:45;;;;;;;5.20;2.88;;;;;;;12.48;100.00;99032.47;4091738;28;20717;-65
2022/10/17 01:35:52;;;;;;;3.63;3.28;;;;;;;12.44;100.00;99023.09;4105125;28;20297;-64
2022/10/17 01:38:13;;;;;;;3.67;2.65;;;;;;;12.33;100.00;99024.84;4075598;29;20330;-65
2022/10/17 01:40:21;;;;;;;4.68;3.10;;;;;;;12.27;100.00;99024.97;4085864;29;20214;-65
2022/10/17 01:42:31;;;;;;;7.28;4.15;;;;;;;12.31;100.00;99021.47;4088870;28;20237;-64
2022/10/17 01:44:39;;;;;;;3.85;2.75;;;;;;;12.33;100.00;99019.34;4089914;28;20203;-65
2022/10/17 01:46:44;;;;;;;4.72;3.63;;;;;;;12.47;100.00;99028.06;4089839;28;20286;-64
2022/10/17 01:48:45;;;;;;;3.75;2.70;;;;;;;12.47;100.00;99028.91;4088354;28;20230;-65
2022/10/17 01:50:53;;;;;;;3.25;2.95;;;;;;;12.36;100.00;99027.06;4090162;28;20273;-64
2022/10/17 01:53:09;;;;;;;3.58;3.28;;;;;;;12.27;100.00;99025.81;4090234;29;20213;-64
2022/10/17 01:55:16;;;;;;;3.70;2.63;;;;;;;12.40;100.00;99030.16;4089433;28;20231;-65
2022/10/17 01:57:26;;;;;;;3.78;3.40;;;;;;;12.39;100.00;99023.84;4103933;28;20202;-65
2022/10/17 01:59:33;;;;;;;3.08;2.80;;;;;;;12.46;100.00;99032.75;4105714;28;20261;-65
2022/10/17 02:01:35;;;;;;;4.57;3.58;;;;;;;12.37;100.00;99027.91;4102910;28;20296;-65
2022/10/17 02:03:39;;;;;;;10.60;2.95;;;;;;;12.33;100.00;99024.00;4088501;28;20675;-65
2022/10/17 02:05:41;;;;;;;8.55;3.65;;;;;;;12.23;100.00;99035.63;4103813;28;20223;-65
2022/10/17 02:07:43;;;;;;;5.18;3.63;;;;;;;12.21;100.00;99023.22;4108122;28;20508;-64
2022/10/17 02:09:44;;;;;;;4.13;2.80;;;;;;;12.33;100.00;99021.25;4104088;28;20253;-65
2022/10/17 02:11:53;;;;;;;6.80;2.70;;;;;;;12.17;100.00;99013.84;4092087;29;20557;-65
2022/10/17 02:14:01;;;;;;;10.15;3.65;;;;;;;12.17;100.00;99014.66;4093950;28;20215;-65
2022/10/17 02:16:40;;;;;;;10.18;3.53;;;;;;;12.27;100.00;99014.84;4094596;28;20226;-65
2022/10/17 02:18:51;;;;;;;6.70;3.80;;;;;;;12.30;100.00;99014.34;4090714;28;20710;-65
2022/10/17 02:20:58;;;;;;;4.38;2.85;;;;;;;12.21;100.00;99013.09;4089855;29;20207;-64
2022/10/17 02:23:46;;;;;;;4.40;3.30;;;;;;;12.26;100.00;99013.19;4090477;29;20570;-64
2022/10/17 02:26:05;;;;;;;5.78;2.55;;;;;;;12.20;100.00;99025.16;4083837;28;20250;-64
2022/10/17 02:28:30;;;;;;;3.13;2.83;;;;;;;12.16;100.00;99032.19;4089695;29;20220;-64
2022/10/17 02:30:44;;;;;;;4.10;3.72;;;;;;;12.10;100.00;99030.44;4087470;29;20834;-64
2022/10/17 02:32:59;;;;;;;5.30;3.60;;;;;;;12.09;100.00;99023.31;4087813;28;20203;-64
2022/10/17 02:35:02;;;;;;;7.13;2.63;;;;;;;12.16;100.00;99023.97;4103488;28;20638;-65
2022/10/17 02:37:06;;;;;;;3.20;2.90;;;;;;;12.17;100.00;99033.06;4089211;29;20621;-64
2022/10/17 02:39:09;;;;;;;12.38;3.17;;;;;;;12.14;100.00;99030.78;4103244;28;20265;-64
2022/10/17 02:41:14;;;;;;;6.03;2.97;;;;;;;12.17;100.00;99030.31;4089381;29;20230;-64
2022/10/17 02:43:15;;;;;;;7.05;3.40;;;;;;;12.09;100.00;99034.28;4085022;28;20246;-64
2022/10/17 02:45:18;;;;;;;6.28;3.13;;;;;;;12.07;100.00;99033.69;4090505;28;20331;-64
2022/10/17 02:47:26;;;;;;;4.00;3.45;;;;;;;12.14;100.00;99031.63;4106319;28;20203;-65
2022/10/17 02:49:32;;;;;;;3.30;2.78;;;;;;;12.05;100.00;99030.34;4091677;28;20714;-64
2022/10/17 02:51:56;;;;;;;2.90;2.70;;;;;;;12.09;100.00;99017.81;4089151;28;20627;-65
2022/10/17 02:54:13;;;;;;;16.08;2.88;;;;;;;11.97;100.00;99019.78;4102658;28;20218;-65
2022/10/17 02:56:17;;;;;;;3.00;2.35;;;;;;;12.07;100.00;99028.22;4090296;28;21071;-65
2022/10/17 02:58:25;;;;;;;3.53;2.58;;;;;;;11.95;100.00;99029.34;4091674;28;20199;-65
2022/10/17 03:00:27;;;;;;;3.35;3.05;;;;;;;11.99;100.00;99033.25;4093273;28;20348;-64
2022/10/17 03:02:44;;;;;;;6.57;3.22;;;;;;;12.04;100.00;99031.44;4090550;28;20207;-65
2022/10/17 03:04:46;;;;;;;5.65;3.15;;;;;;;11.99;100.00;99034.09;4090075;28;20211;-65
2022/10/17 03:06:48;;;;;;;2.80;2.60;;;;;;;12.04;100.00;99031.44;4090131;28;20211;-65
2022/10/17 03:08:50;;;;;;;4.05;2.50;;;;;;;11.87;100.00;99038.81;4089742;28;20703;-65
2022/10/17 03:10:51;;;;;;;4.53;2.83;;;;;;;11.98;100.00;99037.91;4088954;29;20203;-64
2022/10/17 03:12:53;;;;;;;5.88;2.65;;;;;;;11.85;100.00;99032.72;4086504;28;20211;-64
2022/10/17 03:14:54;;;;;;;7.82;3.05;;;;;;;11.81;100.00;99037.03;4104911;28;20590;-65
2022/10/17 03:16:56;;;;;;;7.50;2.80;;;;;;;11.86;100.00;99039.88;4108265;28;20278;-64
2022/10/17 03:18:57;;;;;;;2.70;2.47;;;;;;;11.91;100.00;99041.88;4094555;28;20219;-65
2022/10/17 03:20:59;;;;;;;3.80;3.22;;;;;;;11.92;100.00;99036.13;4109986;28;20301;-64
2022/10/17 03:23:00;;;;;;;2.97;2.70;;;;;;;11.94;100.00;99036.75;4094535;28;20211;-64
2022/10/17 03:25:02;;;;;;;5.88;3.40;;;;;;;11.82;100.00;99038.72;4096586;28;20714;-64
2022/10/17 03:27:04;;;;;;;5.88;3.33;;;;;;;11.86;100.00;99050.00;4095925;28;20215;-64
2022/10/17 03:29:05;;;;;;;8.38;2.65;;;;;;;11.97;100.00;99051.88;4092248;28;20278;-64
2022/10/17 03:31:14;;;;;;;3.80;2.42;;;;;;;11.81;100.00;99041.69;4095219;28;20294;-64
2022/10/17 03:33:16;;;;;;;3.22;2.78;;;;;;;11.86;100.00;99050.84;4077534;29;20207;-64
2022/10/17 03:35:17;;;;;;;5.07;3.28;;;;;;;11.90;100.00;99046.53;4092890;28;20222;-64
2022/10/17 03:37:18;;;;;;;8.65;2.90;;;;;;;11.98;100.00;99048.88;4110650;28;20214;-64
2022/10/17 03:39:20;;;;;;;7.97;4.25;;;;;;;11.97;100.00;99047.22;4093730;28;20646;-64
2022/10/17 03:41:22;;;;;;;5.30;3.03;;;;;;;11.84;100.00;99052.19;4093384;28;20214;-64
2022/10/17 03:43:23;;;;;;;3.65;3.15;;;;;;;11.83;100.00;99050.53;4097431;28;20219;-64
2022/10/17 03:45:24;;;;;;;3.38;2.65;;;;;;;11.93;100.00;99054.28;4094105;28;20238;-64
2022/10/17 03:47:27;;;;;;;5.07;3.20;;;;;;;11.92;100.00;99055.34;4093092;28;20968;-64
2022/10/17 03:49:29;;;;;;;3.17;2.75;;;;;;;11.82;100.00;99049.66;4076418;29;20474;-64
2022/10/17 03:51:34;;;;;;;3.25;2.92;;;;;;;11.93;100.00;99058.91;4095934;28;20239;-64
2022/10/17 03:53:36;;;;;;;5.15;3.03;;;;;;;11.94;100.00;99055.94;4092984;28;20207;-64
2022/10/17 03:55:37;;;;;;;5.03;3.50;;;;;;;11.85;100.00;99059.31;4092697;28;20227;-64
2022/10/17 03:57:39;;;;;;;5.18;2.88;;;;;;;11.85;100.00;99054.66;4096952;28;20211;-65
2022/10/17 03:59:45;;;;;;;4.97;2.90;;;;;;;11.94;100.00;99063.31;4096077;28;20211;-65
2022/10/17 04:01:46;;;;;;;5.20;4.70;;;;;;;11.87;100.00;99063.50;4094544;28;20230;-64
2022/10/17 04:03:52;;;;;;;11.43;3.75;;;;;;;11.87;100.00;99063.50;4095630;29;20635;-65
2022/10/17 04:05:57;;;;;;;15.38;4.30;;;;;;;11.94;100.00;99058.69;4093942;28;20223;-64
2022/10/17 04:07:59;;;;;;;5.00;3.53;;;;;;;11.87;100.00;99058.00;4093410;28;20215;-64
2022/10/17 04:10:05;;;;;;;3.55;3.25;;;;;;;11.86;100.00;99061.84;4091993;28;20765;-64
2022/10/17 04:12:07;;;;;;;11.55;3.72;;;;;;;11.85;100.00;99062.88;4091040;28;20207;-64
2022/10/17 04:14:09;;;;;;;3.15;2.65;;;;;;;11.88;100.00;99064.31;4091884;28;20687;-64
2022/10/17 04:16:13;;;;;;;2.78;2.58;;;;;;;11.82;100.00;99065.28;4090773;28;20710;-64
2022/10/17 04:18:15;;;;;;;7.63;3.13;;;;;;;11.77;100.00;99068.75;4094755;29;20215;-64
2022/10/17 04:20:16;;;;;;;3.80;3.47;;;;;;;11.75;100.00;99070.91;4091916;28;20216;-64
2022/10/17 04:22:18;;;;;;;6.30;3.67;;;;;;;11.87;100.00;99070.88;4088723;28;20218;-64
2022/10/17 04:24:20;;;;;;;3.70;3.45;;;;;;;11.75;100.00;99072.81;4092954;28;20218;-64
2022/10/17 04:26:22;;;;;;;6.68;3.72;;;;;;;11.72;100.00;99078.81;4095501;28;20235;-64
2022/10/17 04:28:24;;;;;;;4.45;3.33;;;;;;;11.74;100.00;99079.38;4088632;28;20632;-64
2022/10/17 04:30:26;;;;;;;4.05;3.38;;;;;;;11.71;100.00;99075.22;4108219;28;20207;-64
2022/10/17 04:32:28;;;;;;;2.78;2.60;;;;;;;11.75;100.00;99081.88;4090167;28;20218;-64
2022/10/17 04:34:29;;;;;;;7.53;3.20;;;;;;;11.68;100.00;99081.19;4090639;28;20212;-64
2022/10/17 04:36:31;;;;;;;8.13;3.30;;;;;;;11.79;100.00;99083.09;4103836;28;20271;-64
2022/10/17 04:38:33;;;;;;;6.68;2.88;;;;;;;11.73;100.00;99089.53;4106935;28;20206;-64
2022/10/17 04:40:35;;;;;;;3.10;2.80;;;;;;;11.76;100.00;99088.22;4091529;28;20314;-64
2022/10/17 04:42:36;;;;;;;8.65;4.07;;;;;;;11.66;100.00;99088.00;4104584;28;20257;-64
2022/10/17 04:44:38;;;;;;;7.50;4.22;;;;;;;11.78;100.00;99081.38;4090646;28;20270;-64
2022/10/17 04:46:39;;;;;;;16.92;5.93;;;;;;;11.46;100.00;99077.44;4088736;28;20243;-64
2022/10/17 04:48:41;;;;;;;6.60;4.40;;;;;;;11.53;100.00;99078.13;4089004;28;20218;-64
2022/10/17 04:50:55;;;;;;;5.07;4.53;;;;;;;11.69;100.00;99074.63;4104736;28;20227;-64
2022/10/17 04:52:56;;;;;;;6.20;4.82;;;;;;;11.60;100.00;99075.25;4106833;28;20203;-64
2022/10/17 04:54:58;;;;;;;7.65;5.45;;;;;;;11.64;100.00;99082.75;4092846;28;20211;-64
2022/10/17 04:56:59;;;;;;;7.13;4.97;;;;;;;11.56;100.00;99088.59;4105611;28;20742;-64
2022/10/17 04:59:01;;;;;;;7.03;6.45;;;;;;;11.61;100.00;99091.47;4092301;28;20251;-64
2022/10/17 05:01:11;;;;;;;7.57;5.55;;;;;;;11.73;100.00;99078.56;4092042;28;20207;-65
2022/10/17 05:03:13;;;;;;;6.47;5.05;;;;;;;11.65;100.00;99084.41;4088019;28;20210;-64
2022/10/17 05:05:14;;;;;;;6.32;5.72;;;;;;;11.71;100.00;99086.19;4086200;28;20526;-65
2022/10/17 05:07:16;;;;;;;6.68;5.47;;;;;;;11.62;100.00;99086.81;4091664;28;20215;-64
2022/10/17 05:09:17;;;;;;;8.82;4.82;;;;;;;11.63;100.00;99086.56;4092087;29;20569;-64
2022/10/17 05:11:24;;;;;;;5.95;5.38;;;;;;;11.48;100.00;99096.34;4089855;29;20819;-64
2022/10/17 05:13:25;;;;;;;5.90;5.38;;;;;;;11.58;100.00;99091.94;4087260;28;20619;-64
2022/10/17 05:15:27;;;;;;;10.55;4.85;;;;;;;11.60;100.00;99087.06;4092621;29;20234;-64
2022/10/17 05:17:28;;;;;;;5.50;4.35;;;;;;;11.61;100.00;99079.66;4087724;28;20218;-64
2022/10/17 05:19:30;;;;;;;5.30;4.90;;;;;;;11.54;100.00;99085.25;4091084;28;20255;-64
2022/10/17 05:21:32;;;;;;;8.60;5.00;;;;;;;11.53;100.00;99099.19;4087222;28;21334;-65
2022/10/17 05:23:38;;;;;;;6.38;4.35;;;;;;;11.63;100.00;99094.78;4089135;28;20208;-64
2022/10/17 05:25:39;;;;;;;4.60;4.20;;;;;;;11.51;100.00;99096.69;4088983;28;20234;-64
2022/10/17 05:27:41;;;;;;;4.13;3.83;;;;;;;11.58;100.00;99099.34;4089543;28;20574;-64
2022/10/17 05:29:43;;;;;;;7.65;4.50;;;;;;;11.64;100.00;99095.63;4101112;28;20773;-65
2022/10/17 05:31:44;;;;;;;5.80;4.53;;;;;;;11.59;100.00;99082.66;4087755;29;20231;-64
2022/10/17 05:33:45;;;;;;;4.93;4.50;;;;;;;11.61;100.00;99086.00;4084961;28;20250;-64
2022/10/17 05:35:47;;;;;;;5.25;4.78;;;;;;;11.56;100.00;99083.09;4085955;28;20241;-64
2022/10/17 05:37:48;;;;;;;5.10;4.68;;;;;;;11.62;100.00;99084.91;4086418;28;20215;-64
2022/10/17 05:39:50;;;;;;;9.98;4.63;;;;;;;11.47;100.00;99098.28;4089854;28;20203;-64
2022/10/17 05:41:52;;;;;;;5.65;5.18;;;;;;;11.55;100.00;99097.03;4089140;28;20207;-64
2022/10/17 05:43:53;;;;;;;6.38;4.80;;;;;;;11.64;100.00;99093.72;4089795;28;20203;-64
2022/10/17 05:45:55;;;;;;;5.55;4.85;;;;;;;11.63;100.00;99094.78;4086599;28;20290;-64
2022/10/17 05:47:56;;;;;;;7.93;4.93;;;;;;;11.46;100.00;99101.25;4088542;28;21712;-64
2022/10/17 05:49:58;;;;;;;5.88;5.38;;;;;;;11.51;100.00;99096.69;4091401;28;20834;-64
2022/10/17 05:52:00;;;;;;;5.72;5.07;;;;;;;11.47;100.00;99106.50;4089068;28;20211;-64
2022/10/17 05:54:04;;;;;;;8.73;4.90;;;;;;;11.31;100.00;99107.22;4105338;28;20218;-64
2022/10/17 05:56:07;;;;;;;4.18;3.78;;;;;;;11.32;100.00;99095.19;4087932;28;21189;-64
2022/10/17 05:58:09;;;;;;;4.85;4.28;;;;;;;11.36;100.00;99099.13;4089937;29;20684;-64
2022/10/17 06:00:22;;;;;;;5.82;4.07;;;;;;;11.35;100.00;99097.44;4089569;28;20266;-64
2022/10/17 06:02:25;;;;;;;4.03;3.72;;;;;;;11.42;100.00;99098.16;4087587;28;20238;-65
2022/10/17 06:04:27;;;;;;;5.05;4.65;;;;;;;11.42;100.00;99098.16;4086762;29;20207;-64
2022/10/17 06:06:29;;;;;;;4.53;4.20;;;;;;;11.45;100.00;99107.81;4089733;28;20766;-64
2022/10/17 06:08:30;;;;;;;4.50;4.13;;;;;;;11.47;100.00;99102.91;4087211;28;20203;-64
2022/10/17 06:10:32;;;;;;;5.18;4.47;;;;;;;11.52;100.00;99112.06;4104672;28;20227;-64
2022/10/17 06:12:33;;;;;;;11.20;4.10;;;;;;;11.56;100.00;99116.00;4089101;28;20200;-64
2022/10/17 06:14:35;;;;;;;5.05;4.68;;;;;;;11.48;100.00;99113.63;4088385;29;20358;-64
2022/10/17 06:16:36;;;;;;;6.00;5.25;;;;;;;11.43;100.00;99108.03;4085093;28;20228;-64
2022/10/17 06:18:38;;;;;;;6.93;4.68;;;;;;;11.46;100.00;99114.94;4086005;28;20247;-64
2022/10/17 06:20:40;;;;;;;5.20;4.70;;;;;;;11.49;100.00;99109.81;4089161;28;20204;-64
2022/10/17 06:22:46;;;;;;;4.28;3.90;;;;;;;11.50;100.00;99116.97;4104356;28;20975;-64
2022/10/17 06:24:48;;;;;;;5.97;5.03;;;;;;;11.52;100.00;99120.28;4087929;28;20211;-64
2022/10/17 06:26:50;;;;;;;6.85;6.15;;;;;;;11.54;100.00;99123.63;4079127;28;20203;-64
2022/10/17 06:28:54;;;;;;;11.15;10.15;;;;;;;11.50;100.00;99133.41;4082915;28;20207;-64
2022/10/17 06:30:55;;;;;;;19.60;17.55;;;;;;;11.54;100.00;99140.09;4104697;28;20309;-64
2022/10/17 06:33:00;;;;;;;24.05;21.63;;;;;;;11.64;100.00;99145.81;4089678;29;20211;-64
2022/10/17 06:35:01;;;;;;;34.13;27.80;;;;;;;11.70;100.00;99133.88;4091261;28;20215;-64
2022/10/17 06:37:02;;;;;;;30.08;27.17;;;;;;;11.64;100.00;99137.56;4089542;28;20257;-64
2022/10/17 06:39:04;;;;;;;31.95;28.27;;;;;;;11.60;100.00;99147.38;4091839;28;21475;-64
2022/10/17 06:41:12;;;;;;;45.58;27.42;;;;;;;11.62;100.00;99147.13;4090430;29;20558;-64
2022/10/17 06:43:14;;;;;;;29.45;26.45;;;;;;;11.64;100.00;99145.81;4090990;28;20221;-65
2022/10/17 06:45:15;;;;;;;37.17;25.75;;;;;;;11.68;100.00;99155.22;4106678;28;20249;-65
2022/10/17 06:47:17;;;;;;;28.05;20.77;;;;;;;11.77;100.00;99151.03;4092826;28;20214;-65
2022/10/17 06:49:20;;;;;;;25.98;16.25;;;;;;;11.75;100.00;99158.66;4091130;28;20231;-65
2022/10/17 06:51:22;;;;;;;16.48;15.20;;;;;;;11.75;100.00;99158.66;4090474;28;20207;-65
2022/10/17 06:53:23;;;;;;;20.95;15.95;;;;;;;11.83;100.00;99165.69;4091505;28;20222;-65
2022/10/17 06:55:25;;;;;;;12.30;11.07;;;;;;;11.85;100.00;99169.81;4089196;28;21161;-64
2022/10/17 06:57:27;;;;;;;20.15;10.27;;;;;;;11.93;100.00;99165.88;4093249;29;20207;-65
2022/10/17 06:59:28;;;;;;;10.48;9.77;;;;;;;11.93;100.00;99166.75;4092260;28;20211;-65
2022/10/17 07:01:31;;;;;;;9.57;8.60;;;;;;;11.88;100.00;99174.84;4090632;28;20262;-65
2022/10/17 07:03:33;;;;;;;13.20;8.13;;;;;;;11.97;100.00;99173.38;4087934;28;20916;-65
2022/10/17 07:05:34;;;;;;;8.60;7.82;;;;;;;12.05;100.00;99178.47;4085123;28;20235;-65
2022/10/17 07:07:36;;;;;;;8.00;6.47;;;;;;;12.15;100.00;99177.84;4084135;28;20211;-65
2022/10/17 07:09:43;;;;;;;7.95;5.93;;;;;;;12.13;100.00;99188.25;4088565;29;20215;-65
2022/10/17 07:11:45;;;;;;;8.48;5.05;;;;;;;12.16;100.00;99177.63;4103693;28;20261;-66
2022/10/17 07:13:46;;;;;;;9.90;5.60;;;;;;;12.18;100.00;99182.88;4090555;28;20811;-64
2022/10/17 07:15:48;;;;;;;6.00;5.15;;;;;;;12.25;100.00;99195.34;4106067;28;20269;-64
2022/10/17 07:17:49;;;;;;;12.35;6.20;;;;;;;12.39;100.00;99195.91;4089060;28;20797;-64
2022/10/17 07:19:51;;;;;;;10.35;6.80;;;;;;;12.55;100.00;99198.69;4089381;29;20211;-64
2022/10/17 07:21:53;;;;;;;10.65;6.22;;;;;;;12.70;100.00;99203.66;4090026;28;20655;-64
2022/10/17 07:23:54;;;;;;;8.05;5.78;;;;;;;12.85;100.00;99212.16;4091130;28;20271;-65
2022/10/17 07:26:07;;;;;;;9.25;8.35;;;;;;;12.96;100.00;99212.13;4090791;28;20318;-64
2022/10/17 07:28:08;;;;;;;11.25;6.63;;;;;;;13.19;100.00;99208.38;4091752;29;20230;-64
2022/10/17 07:30:10;;;;;;;16.75;9.25;;;;;;;13.54;100.00;99209.78;4092103;28;20867;-64
2022/10/17 07:32:12;;;;;;;6.60;6.20;;;;;;;13.83;100.00;99208.53;4106581;28;20221;-64
2022/10/17 07:34:13;;;;;;;5.05;4.10;;;;;;;14.83;100.00;99209.78;4099579;28;20214;-66
2022/10/17 07:36:16;;;;;;;4.80;3.70;;;;;;;15.86;100.00;99215.66;4081250;28;20227;-64
2022/10/17 07:38:18;;;;;;;3.88;2.38;;;;;;;16.34;100.00;99215.34;4082021;28;20211;-63
2022/10/17 07:40:19;;;;;;;6.18;2.80;;;;;;;16.92;100.00;99210.28;4062689;29;20769;-63
2022/10/17 07:42:21;;;;;;;2.92;2.65;;;;;;;17.30;100.00;99201.47;4086909;28;20211;-63
2022/10/17 07:44:23;;;;;;;4.18;2.20;;;;;;;17.72;100.00;99203.97;4086274;28;20755;-65
2022/10/17 07:46:24;;;;;;;2.53;1.63;;;;;;;17.97;100.00;99212.19;4085880;28;20243;-64
2022/10/17 07:48:26;;;;;;;2.53;1.40;;;;;;;18.19;100.00;99212.72;4087198;28;20956;-64
2022/10/17 07:50:28;;;;;;;2.10;1.80;;;;;;;18.36;98.62;99216.00;4086980;28;20784;-64
2022/10/17 07:52:29;;;;;;;5.25;2.00;;;;;;;18.68;95.98;99219.19;4086552;28;20322;-65
2022/10/17 07:54:32;;;;;;;5.82;2.80;;;;;;;18.83;95.62;99208.00;4081831;28;20209;-64
2022/10/17 07:56:33;;;;;;;13.82;9.93;;;;;;;18.85;94.32;99209.38;4087056;28;20251;-64
2022/10/17 07:58:36;;;;;;;6.78;5.07;;;;;;;18.74;95.59;99215.28;4084163;28;20218;-65
2022/10/17 08:00:37;;;;;;;8.45;2.92;;;;;;;18.66;93.80;99218.66;4090266;29;20195;-65
2022/10/17 08:02:39;;;;;;;4.05;1.48;;;;;;;19.07;95.00;99217.28;4087473;28;20681;-65
2022/10/17 08:04:41;;;;;;;6.05;1.73;;;;;;;19.46;94.70;99220.91;4092769;28;20207;-65
2022/10/17 08:06:42;;;;;;;1.90;1.38;;;;;;;19.44;90.50;99226.75;4090804;28;20238;-66
2022/10/17 08:08:44;;;;;;;2.10;1.90;;;;;;;19.65;91.98;99227.41;4090779;28;20270;-65
2022/10/17 08:10:45;;;;;;;2.88;2.42;;;;;;;19.61;90.48;99223.56;4091526;28;20579;-65
2022/10/17 08:12:47;;;;;;;2.50;1.63;;;;;;;19.69;88.75;99225.69;4091584;28;20218;-64
2022/10/17 08:14:49;;;;;;;4.07;1.95;;;;;;;19.70;90.36;99225.41;4090210;28;20214;-65
2022/10/17 08:16:53;;;;;;;3.30;1.55;;;;;;;19.32;88.37;99219.91;4087690;28;20601;-65
2022/10/17 08:18:55;;;;;;;3.78;1.73;;;;;;;19.23;90.55;99222.47;4085325;28;20218;-65
2022/10/17 08:21:01;;;;;;;1.60;1.50;;;;;;;19.24;92.26;99223.31;4105730;28;20940;-64
2022/10/17 08:23:02;;;;;;;2.95;1.20;;;;;;;19.50;90.29;99227.53;4088139;28;20207;-65
2022/10/17 08:25:05;;;;;;;6.90;1.63;;;;;;;19.48;90.87;99213.13;4104897;28;20261;-64
2022/10/17 08:27:10;;;;;;;5.30;1.70;;;;;;;19.59;90.70;99220.25;4092268;28;20228;-65
2022/10/17 08:29:13;;;;;;;1.83;1.73;;;;;;;19.57;88.06;99220.53;4089302;28;20212;-65
2022/10/17 08:31:17;;;;;;;5.30;1.42;;;;;;;19.75;87.02;99218.97;4086411;28;20310;-67
2022/10/17 08:33:19;;;;;;;3.40;1.88;;;;;;;20.05;86.36;99224.25;4100528;28;20211;-67
2022/10/17 08:35:21;;;;;;;1.48;1.15;;;;;;;19.84;86.29;99222.81;4088212;28;20278;-69
2022/10/17 08:37:22;;;;;;;1.55;1.27;;;;;;;20.08;84.56;99218.13;4101269;28;20657;-70
2022/10/17 08:39:24;;;;;;;2.78;1.23;;;;;;;20.17;83.69;99219.16;4086430;28;20218;-70
2022/10/17 08:41:52;;;;;;;2.65;1.35;;;;;;;20.37;83.04;99224.47;4088369;28;21114;-64
2022/10/17 08:44:13;;;;;;;2.65;1.35;;;;;;;20.43;80.96;99228.81;4089547;29;20258;-64
2022/10/17 08:46:14;;;;;;;2.50;1.67;;;;;;;20.63;81.02;99225.78;4089672;28;21221;-64
2022/10/17 08:48:23;;;;;;;1.98;1.13;;;;;;;20.66;80.59;99214.94;4089880;28;20202;-65
2022/10/17 08:50:40;;;;;;;1.58;1.33;;;;;;;20.87;81.17;99229.38;4089058;28;20246;-65
2022/10/17 08:52:46;;;;;;;1.83;1.30;;;;;;;20.96;80.03;99225.66;4089250;28;20221;-63
2022/10/17 08:54:50;;;;;;;1.58;1.48;;;;;;;21.10;81.21;99232.13;4082604;28;20596;-66
2022/10/17 08:56:53;;;;;;;10.65;1.45;;;;;;;21.28;78.89;99233.25;4085654;28;20222;-65
2022/10/17 08:58:54;;;;;;;2.67;1.27;;;;;;;21.00;78.67;99225.88;4091174;28;20663;-65
2022/10/17 09:01:53;;;;;;;5.63;1.58;;;;;;;21.17;79.48;99220.63;4093194;29;20223;-64
2022/10/17 09:04:20;;;;;;;1.45;1.20;;;;;;;21.39;77.83;99213.28;4043171;29;20281;-66
2022/10/17 09:06:28;;;;;;;2.03;1.80;;;;;;;21.75;77.41;99207.97;4091088;28;20313;-65
2022/10/17 09:08:59;;;;;;;1.83;1.00;;;;;;;21.73;75.67;99215.81;4093687;29;20202;-67
2022/10/17 09:11:35;;;;;;;4.10;1.20;;;;;;;21.73;74.91;99219.44;4091346;28;20218;-67
2022/10/17 09:14:00;;;;;;;3.35;1.25;;;;;;;21.53;75.45;99232.84;4092382;28;20293;-64
2022/10/17 09:16:10;;;;;;;1.77;1.35;;;;;;;21.68;75.64;99229.84;4083089;28;20245;-64
2022/10/17 09:18:24;;;;;;;1.65;1.10;;;;;;;21.69;75.52;99223.97;4091337;28;20209;-65
2022/10/17 09:20:32;;;;;;;1.50;1.25;;;;;;;21.90;74.90;99224.44;4105209;28;20257;-65
2022/10/17 09:22:40;;;;;;;2.33;1.08;;;;;;;21.95;76.18;99243.84;4093210;28;20207;-65
2022/10/17 09:24:45;;;;;;;3.13;1.10;;;;;;;22.00;75.50;99232.63;4107987;28;20226;-65
2022/10/17 09:26:47;;;;;;;2.67;1.52;;;;;;;22.06;74.67;99225.81;4104803;28;20758;-64
2022/10/17 09:28:53;;;;;;;3.25;1.30;;;;;;;22.05;74.71;99221.38;4092092;29;20203;-68
2022/10/17 09:31:04;;;;;;;3.17;1.40;;;;;;;21.79;74.48;99223.81;4084841;28;20345;-66
2022/10/17 09:33:18;;;;;;;2.10;1.45;;;;;;;21.96;74.27;99228.78;4092219;29;20230;-67
2022/10/17 09:35:40;;;;;;;1.50;1.40;;;;;;;22.28;74.00;99231.50;4087881;28;20231;-63
2022/10/17 09:37:43;;;;;;;1.80;1.30;;;;;;;21.90;74.17;99230.03;4089059;28;20675;-66
2022/10/17 09:39:45;;;;;;;2.45;0.98;;;;;;;21.59;74.88;99234.44;4091821;28;20273;-65
2022/10/17 09:41:52;;;;;;;5.20;1.73;;;;;;;21.96;75.27;99237.97;4106697;28;20714;-63